createdAt,value
2017-09-07T00:00:08.001Z,1009.38
2017-09-07T00:01:03.151Z,1009.42
2017-09-07T00:01:57.130Z,1009.35
2017-09-07T00:02:45.065Z,1009.38
2017-09-07T00:03:34.126Z,1009.42
2017-09-07T00:04:29.129Z,1009.38
2017-09-07T00:05:23.215Z,1009.34
2017-09-07T00:06:12.388Z,1009.32
2017-09-07T00:07:01.318Z,1009.29
2017-09-07T00:07:49.348Z,1009.34
2017-09-07T00:08:37.595Z,1009.35
2017-09-07T00:09:26.412Z,1009.31
2017-09-07T00:10:21.403Z,1009.28
2017-09-07T00:11:21.642Z,1009.25
2017-09-07T00:12:21.554Z,1009.29
2017-09-07T00:13:15.500Z,1009.29
2017-09-07T00:14:15.546Z,1009.30
2017-09-07T00:15:10.615Z,1009.29
2017-09-07T00:16:05.623Z,1009.26
2017-09-07T00:17:06.716Z,1009.26
2017-09-07T00:17:54.695Z,1009.28
2017-09-07T00:18:44.150Z,1009.29
2017-09-07T00:19:31.800Z,1009.25
2017-09-07T00:20:19.800Z,1009.28
2017-09-07T00:21:13.881Z,1009.28
2017-09-07T00:22:09.066Z,1009.25
2017-09-07T00:23:02.957Z,1009.21
2017-09-07T00:23:56.998Z,1009.19
2017-09-07T00:24:52.034Z,1009.20
2017-09-07T00:25:52.061Z,1009.24
2017-09-07T00:26:52.123Z,1009.24
2017-09-07T00:27:46.128Z,1009.17
2017-09-07T00:28:46.243Z,1009.21
2017-09-07T00:29:41.181Z,1009.16
2017-09-07T00:30:35.291Z,1009.13
2017-09-07T00:31:23.703Z,1009.17
2017-09-07T00:32:17.324Z,1009.15
2017-09-07T00:33:11.374Z,1009.16
2017-09-07T00:34:11.940Z,1009.17
2017-09-07T00:35:06.861Z,1009.11
2017-09-07T00:36:00.414Z,1009.09
2017-09-07T00:36:54.584Z,1009.06
2017-09-07T00:37:54.537Z,1009.10
2017-09-07T00:38:48.605Z,1009.10
2017-09-07T00:39:42.638Z,1009.12
2017-09-07T00:40:36.596Z,1009.10
2017-09-07T00:41:36.605Z,1009.11
2017-09-07T00:42:25.723Z,1009.12
2017-09-07T00:43:20.833Z,1009.17
2017-09-07T00:44:20.796Z,1009.20
2017-09-07T00:45:15.807Z,1009.22
2017-09-07T00:46:10.798Z,1009.16
2017-09-07T00:46:58.867Z,1009.14
2017-09-07T00:47:52.887Z,1009.14
2017-09-07T00:48:40.946Z,1009.16
2017-09-07T00:49:29.003Z,1009.11
2017-09-07T00:50:18.001Z,1009.11
2017-09-07T00:51:06.085Z,1009.08
2017-09-07T00:51:54.121Z,1009.09
2017-09-07T00:52:43.205Z,1009.09
2017-09-07T00:53:43.404Z,1009.08
2017-09-07T00:54:32.261Z,1009.04
2017-09-07T00:55:21.733Z,1009.06
2017-09-07T00:56:21.285Z,1009.03
2017-09-07T00:57:10.683Z,1009.02
2017-09-07T00:58:05.586Z,1009.03
2017-09-07T00:58:59.443Z,1008.96
2017-09-07T01:00:00.454Z,1008.99
2017-09-07T01:00:55.501Z,1008.97
2017-09-07T01:01:49.531Z,1009.03
2017-09-07T01:02:49.565Z,1009.01
2017-09-07T01:03:43.586Z,1009.02
2017-09-07T01:04:43.630Z,1008.98
2017-09-07T01:05:37.683Z,1009.03
2017-09-07T01:06:31.696Z,1009.01
2017-09-07T01:07:31.841Z,1009.02
2017-09-07T01:08:26.215Z,1009.02
2017-09-07T01:09:19.777Z,1009.03
2017-09-07T01:10:14.806Z,1009.00
2017-09-07T01:11:14.851Z,1008.98
2017-09-07T01:12:08.982Z,1009.01
2017-09-07T01:13:08.915Z,1008.99
2017-09-07T01:13:58.028Z,1009.00
2017-09-07T01:14:52.200Z,1008.97
2017-09-07T01:15:47.004Z,1008.95
2017-09-07T01:16:41.127Z,1008.99
2017-09-07T01:17:41.289Z,1009.00
2017-09-07T01:18:35.460Z,1008.99
2017-09-07T01:19:29.177Z,1009.00
2017-09-07T01:20:23.196Z,1008.99
2017-09-07T01:21:23.296Z,1008.95
2017-09-07T01:22:18.305Z,1009.02
2017-09-07T01:23:13.340Z,1008.97
2017-09-07T01:24:13.801Z,1008.98
2017-09-07T01:25:07.406Z,1008.89
2017-09-07T01:26:08.433Z,1008.93
2017-09-07T01:26:56.547Z,1008.97
2017-09-07T01:27:56.642Z,1008.95
2017-09-07T01:28:50.858Z,1008.94
2017-09-07T01:29:38.583Z,1008.95
2017-09-07T01:30:27.612Z,1008.95
2017-09-07T01:31:27.675Z,1008.97
2017-09-07T01:32:16.696Z,1009.01
2017-09-07T01:33:05.753Z,1008.97
2017-09-07T01:33:55.139Z,1008.96
2017-09-07T01:34:48.803Z,1008.98
2017-09-07T01:35:42.866Z,1008.95
2017-09-07T01:36:36.882Z,1008.96
2017-09-07T01:37:30.929Z,1008.96
2017-09-07T01:38:31.330Z,1008.95
2017-09-07T01:39:20.427Z,1008.94
2017-09-07T01:40:08.017Z,1008.94
2017-09-07T01:41:08.074Z,1008.96
2017-09-07T01:41:56.074Z,1008.95
2017-09-07T01:42:50.127Z,1008.99
2017-09-07T01:43:44.571Z,1009.01
2017-09-07T01:44:39.213Z,1009.02
2017-09-07T01:45:33.264Z,1009.09
2017-09-07T01:46:27.287Z,1009.09
2017-09-07T01:47:21.771Z,1009.07
2017-09-07T01:48:22.391Z,1009.08
2017-09-07T01:49:10.722Z,1009.11
2017-09-07T01:50:04.414Z,1009.10
2017-09-07T01:50:53.477Z,1009.12
2017-09-07T01:51:48.486Z,1009.17
2017-09-07T01:52:42.542Z,1009.16
2017-09-07T01:53:31.930Z,1009.20
2017-09-07T01:54:25.618Z,1009.15
2017-09-07T01:55:13.676Z,1009.17
2017-09-07T01:56:08.707Z,1009.16
2017-09-07T01:57:03.719Z,1009.16
2017-09-07T01:58:03.798Z,1009.10
2017-09-07T01:58:58.142Z,1009.14
2017-09-07T01:59:58.836Z,1009.16
2017-09-07T02:00:52.859Z,1009.10
2017-09-07T02:01:52.900Z,1009.10
2017-09-07T02:02:47.934Z,1009.07
2017-09-07T02:03:37.040Z,1009.07
2017-09-07T02:04:26.006Z,1009.03
2017-09-07T02:05:20.098Z,1008.98
2017-09-07T02:06:09.084Z,1009.02
2017-09-07T02:07:09.111Z,1008.99
2017-09-07T02:07:57.220Z,1008.97
2017-09-07T02:08:51.406Z,1008.97
2017-09-07T02:09:45.291Z,1008.91
2017-09-07T02:10:34.314Z,1008.92
2017-09-07T02:11:29.321Z,1008.92
2017-09-07T02:12:23.324Z,1008.90
2017-09-07T02:13:12.418Z,1008.90
2017-09-07T02:14:06.420Z,1008.89
2017-09-07T02:15:06.544Z,1008.89
2017-09-07T02:15:55.511Z,1008.91
2017-09-07T02:16:49.574Z,1008.85
2017-09-07T02:17:44.642Z,1008.90
2017-09-07T02:18:44.621Z,1008.95
2017-09-07T02:19:33.734Z,1008.95
2017-09-07T02:20:27.690Z,1008.90
2017-09-07T02:21:15.776Z,1008.95
2017-09-07T02:22:03.814Z,1008.91
2017-09-07T02:22:57.831Z,1008.87
2017-09-07T02:23:47.214Z,1008.93
2017-09-07T02:24:35.879Z,1008.91
2017-09-07T02:25:29.939Z,1008.88
2017-09-07T02:26:18.009Z,1008.92
2017-09-07T02:27:06.991Z,1008.90
2017-09-07T02:27:55.050Z,1008.89
2017-09-07T02:28:44.148Z,1008.87
2017-09-07T02:29:44.112Z,1008.88
2017-09-07T02:30:38.188Z,1008.91
2017-09-07T02:31:32.230Z,1008.92
2017-09-07T02:32:27.264Z,1008.90
2017-09-07T02:33:21.255Z,1008.87
2017-09-07T02:34:22.329Z,1008.86
2017-09-07T02:35:22.315Z,1008.84
2017-09-07T02:36:11.463Z,1008.84
2017-09-07T02:37:05.663Z,1008.83
2017-09-07T02:38:00.435Z,1008.83
2017-09-07T02:38:55.003Z,1008.88
2017-09-07T02:39:55.488Z,1008.89
2017-09-07T02:40:50.720Z,1008.86
2017-09-07T02:41:50.708Z,1008.87
2017-09-07T02:42:39.612Z,1008.86
2017-09-07T02:43:41.041Z,1008.90
2017-09-07T02:44:41.024Z,1008.86
2017-09-07T02:45:40.753Z,1008.91
2017-09-07T02:46:34.790Z,1008.89
2017-09-07T02:47:34.804Z,1008.84
2017-09-07T02:48:30.346Z,1008.84
2017-09-07T02:49:24.883Z,1008.88
2017-09-07T02:50:13.895Z,1008.88
2017-09-07T02:51:01.984Z,1008.84
2017-09-07T02:51:50.010Z,1008.87
2017-09-07T02:52:38.435Z,1008.87
2017-09-07T02:53:26.134Z,1008.86
2017-09-07T02:54:21.138Z,1008.84
2017-09-07T02:55:15.476Z,1008.80
2017-09-07T02:56:04.192Z,1008.86
2017-09-07T02:56:58.262Z,1008.88
2017-09-07T02:57:53.480Z,1008.85
2017-09-07T02:58:47.544Z,1008.86
2017-09-07T02:59:47.708Z,1008.84
2017-09-07T03:00:42.375Z,1008.85
2017-09-07T03:01:36.400Z,1008.82
2017-09-07T03:02:30.423Z,1008.82
2017-09-07T03:03:24.499Z,1008.81
2017-09-07T03:04:18.497Z,1008.84
2017-09-07T03:05:18.990Z,1008.80
2017-09-07T03:06:13.598Z,1008.78
2017-09-07T03:07:13.603Z,1008.84
2017-09-07T03:08:07.619Z,1008.81
2017-09-07T03:09:07.693Z,1008.81
2017-09-07T03:10:02.695Z,1008.80
2017-09-07T03:10:57.801Z,1008.81
2017-09-07T03:11:57.778Z,1008.78
2017-09-07T03:12:52.807Z,1008.81
2017-09-07T03:13:46.827Z,1008.81
2017-09-07T03:14:41.914Z,1008.82
2017-09-07T03:15:30.897Z,1008.79
2017-09-07T03:16:26.019Z,1008.82
2017-09-07T03:17:14.273Z,1008.83
2017-09-07T03:18:02.019Z,1008.81
2017-09-07T03:18:50.084Z,1008.82
2017-09-07T03:19:38.079Z,1008.86
2017-09-07T03:20:39.180Z,1008.82
2017-09-07T03:21:40.215Z,1008.79
2017-09-07T03:22:34.321Z,1008.77
2017-09-07T03:23:28.390Z,1008.76
2017-09-07T03:24:22.288Z,1008.78
2017-09-07T03:25:11.295Z,1008.76
2017-09-07T03:26:05.327Z,1008.72
2017-09-07T03:26:59.418Z,1008.77
2017-09-07T03:27:59.412Z,1008.76
2017-09-07T03:28:48.486Z,1008.71
2017-09-07T03:29:36.563Z,1008.72
2017-09-07T03:30:25.585Z,1008.70
2017-09-07T03:31:13.634Z,1008.75
2017-09-07T03:32:01.625Z,1008.74
2017-09-07T03:32:50.675Z,1008.71
2017-09-07T03:33:39.029Z,1008.73
2017-09-07T03:34:27.810Z,1008.74
2017-09-07T03:35:21.817Z,1008.71
2017-09-07T03:36:16.784Z,1008.69
2017-09-07T03:37:16.876Z,1008.72
2017-09-07T03:38:11.014Z,1008.69
2017-09-07T03:38:59.950Z,1008.65
2017-09-07T03:39:55.018Z,1008.66
2017-09-07T03:40:50.462Z,1008.69
2017-09-07T03:41:38.092Z,1008.67
2017-09-07T03:42:26.108Z,1008.67
2017-09-07T03:43:21.119Z,1008.64
2017-09-07T03:44:16.742Z,1008.68
2017-09-07T03:45:17.249Z,1008.68
2017-09-07T03:46:11.227Z,1008.68
2017-09-07T03:47:05.286Z,1008.67
2017-09-07T03:47:53.294Z,1008.61
2017-09-07T03:48:41.312Z,1008.67
2017-09-07T03:49:36.407Z,1008.66
2017-09-07T03:50:36.833Z,1008.62
2017-09-07T03:51:25.774Z,1008.63
2017-09-07T03:52:25.476Z,1008.64
2017-09-07T03:53:20.797Z,1008.64
2017-09-07T03:54:20.565Z,1008.65
2017-09-07T03:55:15.625Z,1008.66
2017-09-07T03:56:10.607Z,1008.65
2017-09-07T03:57:10.683Z,1008.62
2017-09-07T03:58:05.671Z,1008.65
2017-09-07T03:58:59.733Z,1008.65
2017-09-07T03:59:59.763Z,1008.71
2017-09-07T04:00:59.798Z,1008.68
2017-09-07T04:01:54.822Z,1008.67
2017-09-07T04:02:43.824Z,1008.66
2017-09-07T04:03:43.861Z,1008.64
2017-09-07T04:04:38.928Z,1008.59
2017-09-07T04:05:33.009Z,1008.65
2017-09-07T04:06:27.051Z,1008.65
2017-09-07T04:07:26.996Z,1008.65
2017-09-07T04:08:16.506Z,1008.62
2017-09-07T04:09:11.225Z,1008.67
2017-09-07T04:10:05.190Z,1008.61
2017-09-07T04:11:05.210Z,1008.60
2017-09-07T04:12:05.190Z,1008.60
2017-09-07T04:13:00.191Z,1008.58
2017-09-07T04:13:54.273Z,1008.61
2017-09-07T04:14:54.309Z,1008.55
2017-09-07T04:15:48.383Z,1008.56
2017-09-07T04:16:37.391Z,1008.49
2017-09-07T04:17:26.426Z,1008.55
2017-09-07T04:18:15.492Z,1008.53
2017-09-07T04:19:04.486Z,1008.57
2017-09-07T04:19:58.491Z,1008.56
2017-09-07T04:20:58.609Z,1008.56
2017-09-07T04:21:46.594Z,1008.55
2017-09-07T04:22:46.634Z,1008.56
2017-09-07T04:23:46.677Z,1008.55
2017-09-07T04:24:35.777Z,1008.55
2017-09-07T04:25:24.151Z,1008.52
2017-09-07T04:26:18.847Z,1008.52
2017-09-07T04:27:19.813Z,1008.59
2017-09-07T04:28:07.866Z,1008.57
2017-09-07T04:29:01.922Z,1008.50
2017-09-07T04:29:55.935Z,1008.54
2017-09-07T04:30:44.001Z,1008.54
2017-09-07T04:31:44.021Z,1008.55
2017-09-07T04:32:44.069Z,1008.56
2017-09-07T04:33:38.275Z,1008.54
2017-09-07T04:34:26.113Z,1008.53
2017-09-07T04:35:27.147Z,1008.52
2017-09-07T04:36:15.220Z,1008.51
2017-09-07T04:37:04.506Z,1008.54
2017-09-07T04:37:59.286Z,1008.52
2017-09-07T04:38:53.309Z,1008.50
2017-09-07T04:39:42.350Z,1008.52
2017-09-07T04:40:37.398Z,1008.53
2017-09-07T04:41:31.413Z,1008.54
2017-09-07T04:42:25.869Z,1008.58
2017-09-07T04:43:20.520Z,1008.57
2017-09-07T04:44:14.522Z,1008.59
2017-09-07T04:45:08.566Z,1008.65
2017-09-07T04:46:03.649Z,1008.57
2017-09-07T04:46:58.669Z,1008.66
2017-09-07T04:47:58.718Z,1008.62
2017-09-07T04:48:53.719Z,1008.67
2017-09-07T04:49:53.758Z,1008.68
2017-09-07T04:50:42.787Z,1008.70
2017-09-07T04:51:31.909Z,1008.68
2017-09-07T04:52:19.874Z,1008.67
2017-09-07T04:53:20.922Z,1008.67
2017-09-07T04:54:15.200Z,1008.71
2017-09-07T04:55:09.988Z,1008.70
2017-09-07T04:56:04.017Z,1008.71
2017-09-07T04:56:59.112Z,1008.73
2017-09-07T04:58:00.101Z,1008.70
2017-09-07T04:59:00.184Z,1008.69
2017-09-07T05:00:00.170Z,1008.71
2017-09-07T05:00:54.200Z,1008.67
2017-09-07T05:01:54.188Z,1008.66
2017-09-07T05:02:49.275Z,1008.68
2017-09-07T05:03:44.304Z,1008.68
2017-09-07T05:04:44.325Z,1008.64
2017-09-07T05:05:44.402Z,1008.66
2017-09-07T05:06:38.386Z,1008.62
2017-09-07T05:07:39.399Z,1008.64
2017-09-07T05:08:33.947Z,1008.61
2017-09-07T05:09:28.606Z,1008.62
2017-09-07T05:10:22.806Z,1008.60
2017-09-07T05:11:22.573Z,1008.62
2017-09-07T05:12:16.730Z,1008.62
2017-09-07T05:13:17.639Z,1008.64
2017-09-07T05:14:18.690Z,1008.66
2017-09-07T05:15:12.715Z,1008.64
2017-09-07T05:16:06.781Z,1008.66
2017-09-07T05:17:06.811Z,1008.63
2017-09-07T05:17:55.843Z,1008.68
2017-09-07T05:18:44.867Z,1008.72
2017-09-07T05:19:38.894Z,1008.69
2017-09-07T05:20:38.937Z,1008.74
2017-09-07T05:21:33.262Z,1008.70
2017-09-07T05:22:34.043Z,1008.72
2017-09-07T05:23:29.071Z,1008.74
2017-09-07T05:24:29.098Z,1008.67
2017-09-07T05:25:29.091Z,1008.72
2017-09-07T05:26:29.160Z,1008.72
2017-09-07T05:27:29.181Z,1008.69
2017-09-07T05:28:29.236Z,1008.67
2017-09-07T05:29:29.262Z,1008.69
2017-09-07T05:30:29.272Z,1008.67
2017-09-07T05:31:29.281Z,1008.68
2017-09-07T05:32:29.361Z,1008.71
2017-09-07T05:33:29.648Z,1008.71
2017-09-07T05:34:29.419Z,1008.69
2017-09-07T05:35:29.459Z,1008.73
2017-09-07T05:36:29.521Z,1008.72
2017-09-07T05:37:29.511Z,1008.72
2017-09-07T05:38:29.507Z,1008.70
2017-09-07T05:39:29.579Z,1008.72
2017-09-07T05:40:29.596Z,1008.72
2017-09-07T05:41:23.607Z,1008.71
2017-09-07T05:42:17.978Z,1008.66
2017-09-07T05:43:13.074Z,1008.70
2017-09-07T05:44:01.759Z,1008.78
2017-09-07T05:45:02.094Z,1008.74
2017-09-07T05:45:56.828Z,1008.74
2017-09-07T05:46:50.982Z,1008.75
2017-09-07T05:47:38.882Z,1008.73
2017-09-07T05:48:27.206Z,1008.76
2017-09-07T05:49:16.019Z,1008.76
2017-09-07T05:50:04.195Z,1008.78
2017-09-07T05:50:52.075Z,1008.77
2017-09-07T05:51:46.149Z,1008.77
2017-09-07T05:52:40.181Z,1008.77
2017-09-07T05:53:29.221Z,1008.77
2017-09-07T05:54:18.426Z,1008.76
2017-09-07T05:55:07.356Z,1008.82
2017-09-07T05:55:55.320Z,1008.82
2017-09-07T05:56:49.374Z,1008.80
2017-09-07T05:57:43.440Z,1008.83
2017-09-07T05:58:43.424Z,1008.87
2017-09-07T05:59:38.910Z,1008.88
2017-09-07T06:00:33.616Z,1008.89
2017-09-07T06:01:33.534Z,1008.86
2017-09-07T06:02:28.687Z,1008.87
2017-09-07T06:03:23.606Z,1008.91
2017-09-07T06:04:17.689Z,1008.90
2017-09-07T06:05:17.707Z,1008.90
2017-09-07T06:06:12.867Z,1008.89
2017-09-07T06:07:01.774Z,1008.90
2017-09-07T06:08:01.793Z,1008.88
2017-09-07T06:09:01.979Z,1008.91
2017-09-07T06:10:02.877Z,1008.88
2017-09-07T06:11:02.995Z,1008.91
2017-09-07T06:11:51.176Z,1008.86
2017-09-07T06:12:40.038Z,1008.87
2017-09-07T06:13:40.205Z,1008.86
2017-09-07T06:14:29.127Z,1008.84
2017-09-07T06:15:23.421Z,1008.90
2017-09-07T06:16:29.138Z,1008.88
2017-09-07T06:17:24.194Z,1008.83
2017-09-07T06:18:18.202Z,1008.82
2017-09-07T06:19:12.375Z,1008.77
2017-09-07T06:20:06.342Z,1008.75
2017-09-07T06:21:01.324Z,1008.74
2017-09-07T06:21:55.395Z,1008.77
2017-09-07T06:22:49.400Z,1008.79
2017-09-07T06:23:44.467Z,1008.79
2017-09-07T06:24:38.527Z,1008.84
2017-09-07T06:25:27.547Z,1008.86
2017-09-07T06:26:16.586Z,1008.85
2017-09-07T06:27:10.870Z,1008.90
2017-09-07T06:28:05.907Z,1008.88
2017-09-07T06:28:59.697Z,1008.91
2017-09-07T06:29:59.739Z,1008.88
2017-09-07T06:30:59.758Z,1008.86
2017-09-07T06:31:54.778Z,1008.90
2017-09-07T06:32:54.863Z,1008.91
2017-09-07T06:33:48.929Z,1008.92
2017-09-07T06:34:42.873Z,1008.89
2017-09-07T06:35:36.990Z,1008.98
2017-09-07T06:36:36.984Z,1008.97
2017-09-07T06:37:32.285Z,1009.01
2017-09-07T06:38:32.098Z,1008.98
2017-09-07T06:39:27.350Z,1009.01
2017-09-07T06:40:22.142Z,1009.04
2017-09-07T06:41:17.421Z,1009.05
2017-09-07T06:42:11.210Z,1009.08
2017-09-07T06:43:05.275Z,1009.03
2017-09-07T06:44:05.318Z,1009.04
2017-09-07T06:44:59.376Z,1009.04
2017-09-07T06:45:48.458Z,1009.09
2017-09-07T06:46:48.411Z,1009.03
2017-09-07T06:47:37.472Z,1009.00
2017-09-07T06:48:26.781Z,1009.02
2017-09-07T06:49:21.570Z,1009.02
2017-09-07T06:50:15.558Z,1009.03
2017-09-07T06:51:16.800Z,1009.02
2017-09-07T06:52:10.690Z,1009.06
2017-09-07T06:53:04.698Z,1009.01
2017-09-07T06:53:59.888Z,1009.02
2017-09-07T06:54:47.783Z,1009.01
2017-09-07T06:55:41.896Z,1009.02
2017-09-07T06:56:41.903Z,1009.04
2017-09-07T06:57:37.064Z,1009.02
2017-09-07T06:58:42.986Z,1009.03
2017-09-07T06:59:30.991Z,1009.02
2017-09-07T07:00:26.308Z,1009.02
2017-09-07T07:01:26.116Z,1008.99
2017-09-07T07:02:15.407Z,1008.97
2017-09-07T07:03:15.288Z,1008.98
2017-09-07T07:04:03.249Z,1008.95
2017-09-07T07:04:52.266Z,1008.94
2017-09-07T07:05:47.335Z,1008.99
2017-09-07T07:06:36.592Z,1008.96
2017-09-07T07:07:36.377Z,1008.92
2017-09-07T07:08:25.407Z,1008.94
2017-09-07T07:09:13.429Z,1008.96
2017-09-07T07:10:07.558Z,1008.97
2017-09-07T07:11:07.513Z,1008.96
2017-09-07T07:11:56.012Z,1008.96
2017-09-07T07:12:50.625Z,1008.97
2017-09-07T07:13:44.686Z,1008.95
2017-09-07T07:14:39.962Z,1008.99
2017-09-07T07:15:28.814Z,1008.95
2017-09-07T07:16:29.145Z,1009.01
2017-09-07T07:17:18.621Z,1009.02
2017-09-07T07:18:12.267Z,1009.01
2017-09-07T07:19:13.314Z,1009.00
2017-09-07T07:20:02.377Z,1009.00
2017-09-07T07:21:02.370Z,1009.07
2017-09-07T07:21:57.430Z,1009.06
2017-09-07T07:22:57.410Z,1009.03
2017-09-07T07:23:52.484Z,1009.06
2017-09-07T07:24:41.589Z,1009.07
2017-09-07T07:25:41.509Z,1009.03
2017-09-07T07:26:30.664Z,1009.01
2017-09-07T07:27:19.719Z,1008.97
2017-09-07T07:28:08.002Z,1008.95
2017-09-07T07:28:56.367Z,1008.97
2017-09-07T07:29:51.435Z,1009.00
2017-09-07T07:30:40.473Z,1008.96
2017-09-07T07:31:40.504Z,1008.93
2017-09-07T07:32:34.604Z,1008.98
2017-09-07T07:33:36.121Z,1008.97
2017-09-07T07:34:29.689Z,1008.95
2017-09-07T07:35:29.695Z,1009.00
2017-09-07T07:36:23.755Z,1009.00
2017-09-07T07:37:17.814Z,1009.01
2017-09-07T07:38:18.814Z,1009.00
2017-09-07T07:39:13.614Z,1009.02
2017-09-07T07:40:01.927Z,1008.99
2017-09-07T07:40:56.965Z,1009.05
2017-09-07T07:41:52.014Z,1009.11
2017-09-07T07:42:46.067Z,1009.13
2017-09-07T07:43:40.523Z,1009.16
2017-09-07T07:44:41.556Z,1009.13
2017-09-07T07:45:41.503Z,1009.17
2017-09-07T07:46:36.580Z,1009.22
2017-09-07T07:47:36.552Z,1009.16
2017-09-07T07:48:30.635Z,1009.14
2017-09-07T07:49:30.662Z,1009.13
2017-09-07T07:50:19.720Z,1009.11
2017-09-07T07:51:13.758Z,1009.12
2017-09-07T07:52:13.756Z,1009.12
2017-09-07T07:53:07.889Z,1009.23
2017-09-07T07:54:07.939Z,1009.24
2017-09-07T07:55:07.919Z,1009.26
2017-09-07T07:56:07.974Z,1009.15
2017-09-07T07:57:01.989Z,1009.16
2017-09-07T07:57:56.115Z,1009.09
2017-09-07T07:58:50.079Z,1009.14
2017-09-07T07:59:44.187Z,1009.10
2017-09-07T08:00:38.159Z,1009.19
2017-09-07T08:01:26.266Z,1009.30
2017-09-07T08:02:27.272Z,1009.29
2017-09-07T08:03:16.373Z,1009.22
2017-09-07T08:04:11.354Z,1009.25
2017-09-07T08:05:06.426Z,1009.24
2017-09-07T08:06:00.469Z,1009.28
2017-09-07T08:06:48.482Z,1009.31
2017-09-07T08:07:43.503Z,1009.30
2017-09-07T08:08:38.704Z,1009.25
2017-09-07T08:09:38.629Z,1009.26
2017-09-07T08:10:38.674Z,1009.21
2017-09-07T08:11:32.356Z,1009.22
2017-09-07T08:12:20.382Z,1009.28
2017-09-07T08:13:14.451Z,1009.28
2017-09-07T08:14:03.538Z,1009.32
2017-09-07T08:14:51.996Z,1009.31
2017-09-07T08:15:41.018Z,1009.27
2017-09-07T08:16:35.985Z,1009.20
2017-09-07T08:17:25.361Z,1009.20
2017-09-07T08:18:19.105Z,1009.18
2017-09-07T08:19:24.810Z,1009.24
2017-09-07T08:20:18.814Z,1009.19
2017-09-07T08:21:19.195Z,1009.24
2017-09-07T08:22:07.850Z,1009.29
2017-09-07T08:23:01.928Z,1009.28
2017-09-07T08:24:02.924Z,1009.41
2017-09-07T08:24:57.033Z,1009.36
2017-09-07T08:25:58.013Z,1009.35
2017-09-07T08:26:46.142Z,1009.37
2017-09-07T08:27:35.482Z,1009.37
2017-09-07T08:28:35.498Z,1009.36
2017-09-07T08:29:24.606Z,1009.39
2017-09-07T08:30:19.664Z,1009.29
2017-09-07T08:31:13.650Z,1009.23
2017-09-07T08:32:07.713Z,1009.29
2017-09-07T08:33:07.730Z,1009.26
2017-09-07T08:34:02.012Z,1009.17
2017-09-07T08:35:01.824Z,1009.13
2017-09-07T08:35:55.853Z,1009.17
2017-09-07T08:36:49.989Z,1009.23
2017-09-07T08:37:44.992Z,1009.27
2017-09-07T08:38:40.111Z,1009.31
2017-09-07T08:39:29.082Z,1009.33
2017-09-07T08:40:17.212Z,1009.33
2017-09-07T08:41:17.185Z,1009.38
2017-09-07T08:42:11.292Z,1009.39
2017-09-07T08:43:05.898Z,1009.33
2017-09-07T08:43:54.998Z,1009.30
2017-09-07T08:44:55.004Z,1009.27
2017-09-07T08:45:44.132Z,1009.21
2017-09-07T08:46:45.262Z,1009.24
2017-09-07T08:47:39.129Z,1009.24
2017-09-07T08:48:28.296Z,1009.26
2017-09-07T08:49:23.305Z,1009.28
2017-09-07T08:50:17.397Z,1009.30
2017-09-07T08:51:17.303Z,1009.32
2017-09-07T08:52:12.778Z,1009.33
2017-09-07T08:53:06.741Z,1009.33
2017-09-07T08:53:55.611Z,1009.25
2017-09-07T08:54:44.479Z,1009.41
2017-09-07T08:55:39.800Z,1009.38
2017-09-07T08:56:33.840Z,1009.35
2017-09-07T08:57:33.659Z,1009.31
2017-09-07T08:58:23.110Z,1009.25
2017-09-07T08:59:17.147Z,1009.25
2017-09-07T09:00:10.818Z,1009.23
2017-09-07T09:01:05.832Z,1009.20
2017-09-07T09:02:05.918Z,1009.21
2017-09-07T09:02:55.050Z,1009.24
2017-09-07T09:03:49.033Z,1009.25
2017-09-07T09:04:43.000Z,1009.30
2017-09-07T09:05:31.237Z,1009.31
2017-09-07T09:06:19.650Z,1009.32
2017-09-07T09:07:19.371Z,1009.29
2017-09-07T09:08:13.457Z,1009.24
2017-09-07T09:09:07.323Z,1009.32
2017-09-07T09:10:01.430Z,1009.32
2017-09-07T09:11:02.573Z,1009.33
2017-09-07T09:12:03.681Z,1009.35
2017-09-07T09:12:57.836Z,1009.23
2017-09-07T09:13:46.895Z,1009.26
2017-09-07T09:14:41.879Z,1009.31
2017-09-07T09:15:30.975Z,1009.21
2017-09-07T09:16:25.128Z,1009.19
2017-09-07T09:17:20.327Z,1009.20
2017-09-07T09:18:15.116Z,1009.21
2017-09-07T09:19:04.106Z,1009.26
2017-09-07T09:19:59.292Z,1009.15
2017-09-07T09:20:48.318Z,1009.13
2017-09-07T09:21:42.337Z,1009.11
2017-09-07T09:22:37.715Z,1009.12
2017-09-07T09:23:32.370Z,1009.17
2017-09-07T09:24:27.103Z,1009.20
2017-09-07T09:25:16.362Z,1009.12
2017-09-07T09:26:04.644Z,1009.11
2017-09-07T09:26:58.674Z,1009.23
2017-09-07T09:27:47.998Z,1009.10
2017-09-07T09:28:41.925Z,1009.10
2017-09-07T09:29:36.781Z,1009.07
2017-09-07T09:30:30.911Z,1009.02
2017-09-07T09:31:18.959Z,1009.12
2017-09-07T09:32:13.962Z,1009.07
2017-09-07T09:33:03.084Z,1009.02
2017-09-07T09:33:52.082Z,1009.03
2017-09-07T09:34:41.162Z,1009.04
2017-09-07T09:35:35.234Z,1009.07
2017-09-07T09:36:29.318Z,1009.01
2017-09-07T09:37:23.309Z,1009.02
2017-09-07T09:38:17.407Z,1009.08
2017-09-07T09:39:11.412Z,1008.94
2017-09-07T09:40:06.442Z,1008.86
2017-09-07T09:41:01.496Z,1008.96
2017-09-07T09:42:01.583Z,1008.97
2017-09-07T09:42:56.636Z,1008.96
2017-09-07T09:43:51.726Z,1008.97
2017-09-07T09:44:51.719Z,1008.88
2017-09-07T09:45:40.811Z,1008.90
2017-09-07T09:46:34.749Z,1009.02
2017-09-07T09:47:29.539Z,1009.13
2017-09-07T09:48:29.819Z,1008.98
2017-09-07T09:49:23.875Z,1008.89
2017-09-07T09:50:18.889Z,1008.92
2017-09-07T09:51:19.051Z,1008.86
2017-09-07T09:52:14.220Z,1008.92
2017-09-07T09:53:14.089Z,1008.85
2017-09-07T09:54:08.030Z,1008.78
2017-09-07T09:55:01.963Z,1008.77
2017-09-07T09:56:01.993Z,1008.80
2017-09-07T09:56:56.450Z,1008.76
2017-09-07T09:57:45.296Z,1008.81
2017-09-07T09:58:39.652Z,1008.83
2017-09-07T09:59:28.214Z,1008.88
2017-09-07T10:00:22.300Z,1008.92
2017-09-07T10:01:23.409Z,1008.90
2017-09-07T10:02:17.758Z,1008.89
2017-09-07T10:03:06.696Z,1008.91
2017-09-07T10:04:00.792Z,1008.94
2017-09-07T10:04:49.479Z,1008.97
2017-09-07T10:05:43.812Z,1008.77
2017-09-07T10:06:31.894Z,1008.72
2017-09-07T10:07:33.040Z,1008.79
2017-09-07T10:08:21.149Z,1008.79
2017-09-07T10:09:15.055Z,1008.75
2017-09-07T10:10:09.818Z,1008.76
2017-09-07T10:11:05.326Z,1008.63
2017-09-07T10:11:59.895Z,1008.62
2017-09-07T10:12:54.366Z,1008.66
2017-09-07T10:13:49.427Z,1008.78
2017-09-07T10:14:50.091Z,1008.81
2017-09-07T10:15:44.109Z,1008.86
2017-09-07T10:16:32.590Z,1008.93
2017-09-07T10:17:33.609Z,1008.94
2017-09-07T10:18:28.356Z,1008.93
2017-09-07T10:19:22.294Z,1008.88
2017-09-07T10:20:16.614Z,1008.89
2017-09-07T10:21:16.412Z,1008.86
2017-09-07T10:22:10.569Z,1008.81
2017-09-07T10:23:04.494Z,1008.79
2017-09-07T10:23:58.552Z,1008.79
2017-09-07T10:24:52.644Z,1008.83
2017-09-07T10:25:40.622Z,1008.79
2017-09-07T10:26:29.043Z,1008.73
2017-09-07T10:27:23.120Z,1008.68
2017-09-07T10:28:17.249Z,1008.62
2017-09-07T10:29:05.254Z,1008.58
2017-09-07T10:29:59.338Z,1008.53
2017-09-07T10:30:52.948Z,1008.55
2017-09-07T10:31:41.987Z,1008.59
2017-09-07T10:32:31.066Z,1008.58
2017-09-07T10:33:31.335Z,1008.59
2017-09-07T10:34:25.128Z,1008.61
2017-09-07T10:35:14.179Z,1008.59
2017-09-07T10:36:03.278Z,1008.59
2017-09-07T10:36:52.736Z,1008.59
2017-09-07T10:37:47.612Z,1008.60
2017-09-07T10:38:47.682Z,1008.58
2017-09-07T10:39:36.594Z,1008.61
2017-09-07T10:40:30.508Z,1008.57
2017-09-07T10:41:24.563Z,1008.63
2017-09-07T10:42:13.894Z,1008.60
2017-09-07T10:43:13.906Z,1008.51
2017-09-07T10:44:14.002Z,1008.56
2017-09-07T10:45:03.071Z,1008.53
2017-09-07T10:45:52.130Z,1008.53
2017-09-07T10:46:46.251Z,1008.54
2017-09-07T10:47:40.890Z,1008.50
2017-09-07T10:48:35.938Z,1008.60
2017-09-07T10:49:30.018Z,1008.57
2017-09-07T10:50:25.016Z,1008.58
2017-09-07T10:51:20.068Z,1008.58
2017-09-07T10:52:20.083Z,1008.55
2017-09-07T10:53:09.133Z,1008.62
2017-09-07T10:54:03.248Z,1008.58
2017-09-07T10:55:04.207Z,1008.66
2017-09-07T10:55:59.532Z,1008.58
2017-09-07T10:56:48.449Z,1008.57